sensor_id;sensor_type;location;lat;lon;timestamp;P1;durP1;ratioP1;P2;durP2;ratioP2
50417;SDS011;36346;48.280;14.292;2023-12-28T00:01:53;12.10;;;12.09;;
50417;SDS011;36346;48.280;14.292;2023-12-28T00:04:22;12.56;;;12.55;;
50417;SDS011;36346;48.280;14.292;2023-12-28T00:06:51;12.29;;;12.21;;
50417;SDS011;36346;48.280;14.292;2023-12-28T00:09:19;12.82;;;12.76;;
50417;SDS011;36346;48.280;14.292;2023-12-28T00:11:50;12.22;;;12.17;;
50417;SDS011;36346;48.280;14.292;2023-12-28T00:14:18;12.06;;;12.06;;
50417;SDS011;36346;48.280;14.292;2023-12-28T00:16:47;11.69;;;11.69;;
50417;SDS011;36346;48.280;14.292;2023-12-28T00:19:15;11.56;;;11.52;;
50417;SDS011;36346;48.280;14.292;2023-12-28T00:21:44;11.49;;;11.44;;
50417;SDS011;36346;48.280;14.292;2023-12-28T00:24:16;11.04;;;10.99;;
50417;SDS011;36346;48.280;14.292;2023-12-28T00:26:44;11.28;;;11.25;;
50417;SDS011;36346;48.280;14.292;2023-12-28T00:29:13;11.43;;;11.41;;
50417;SDS011;36346;48.280;14.292;2023-12-28T00:31:41;11.57;;;11.53;;
50417;SDS011;36346;48.280;14.292;2023-12-28T00:34:11;10.52;;;10.50;;
50417;SDS011;36346;48.280;14.292;2023-12-28T00:36:39;11.02;;;11.02;;
50417;SDS011;36346;48.280;14.292;2023-12-28T00:39:08;11.73;;;11.73;;
50417;SDS011;36346;48.280;14.292;2023-12-28T00:41:36;11.59;;;11.58;;
50417;SDS011;36346;48.280;14.292;2023-12-28T00:44:05;10.89;;;10.88;;
50417;SDS011;36346;48.280;14.292;2023-12-28T00:46:37;11.87;;;11.78;;
50417;SDS011;36346;48.280;14.292;2023-12-28T00:49:06;12.42;;;12.38;;
50417;SDS011;36346;48.280;14.292;2023-12-28T00:51:34;12.63;;;12.60;;
50417;SDS011;36346;48.280;14.292;2023-12-28T00:54:02;15.05;;;14.94;;
50417;SDS011;36346;48.280;14.292;2023-12-28T00:56:30;15.82;;;15.53;;
50417;SDS011;36346;48.280;14.292;2023-12-28T00:58:58;17.91;;;17.48;;
50417;SDS011;36346;48.280;14.292;2023-12-28T01:01:27;16.35;;;15.96;;
50417;SDS011;36346;48.280;14.292;2023-12-28T01:03:58;14.63;;;14.50;;
50417;SDS011;36346;48.280;14.292;2023-12-28T01:06:27;13.97;;;13.91;;
50417;SDS011;36346;48.280;14.292;2023-12-28T01:08:58;13.97;;;13.93;;
50417;SDS011;36346;48.280;14.292;2023-12-28T01:11:26;16.19;;;16.08;;
50417;SDS011;36346;48.280;14.292;2023-12-28T01:13:56;23.59;;;22.84;;
50417;SDS011;36346;48.280;14.292;2023-12-28T01:16:25;24.92;;;24.03;;
50417;SDS011;36346;48.280;14.292;2023-12-28T01:18:54;19.47;;;19.28;;
50417;SDS011;36346;48.280;14.292;2023-12-28T01:21:23;16.63;;;16.46;;
50417;SDS011;36346;48.280;14.292;2023-12-28T01:23:53;16.04;;;15.85;;
50417;SDS011;36346;48.280;14.292;2023-12-28T01:26:23;16.05;;;15.94;;
50417;SDS011;36346;48.280;14.292;2023-12-28T01:28:52;15.22;;;15.16;;
50417;SDS011;36346;48.280;14.292;2023-12-28T01:31:20;15.04;;;14.98;;
50417;SDS011;36346;48.280;14.292;2023-12-28T01:33:49;14.56;;;14.55;;
50417;SDS011;36346;48.280;14.292;2023-12-28T01:36:17;14.85;;;14.83;;
50417;SDS011;36346;48.280;14.292;2023-12-28T01:38:48;14.34;;;14.30;;
50417;SDS011;36346;48.280;14.292;2023-12-28T01:41:17;15.09;;;15.05;;
50417;SDS011;36346;48.280;14.292;2023-12-28T01:43:45;14.92;;;14.85;;
50417;SDS011;36346;48.280;14.292;2023-12-28T01:46:17;14.95;;;14.87;;
50417;SDS011;36346;48.280;14.292;2023-12-28T01:48:48;14.93;;;14.85;;
50417;SDS011;36346;48.280;14.292;2023-12-28T01:51:19;14.98;;;14.94;;
50417;SDS011;36346;48.280;14.292;2023-12-28T01:53:48;15.66;;;15.59;;
50417;SDS011;36346;48.280;14.292;2023-12-28T01:56:19;15.69;;;15.60;;
50417;SDS011;36346;48.280;14.292;2023-12-28T01:58:48;16.83;;;16.73;;
50417;SDS011;36346;48.280;14.292;2023-12-28T02:01:17;15.72;;;15.62;;
50417;SDS011;36346;48.280;14.292;2023-12-28T02:03:47;15.51;;;15.41;;
50417;SDS011;36346;48.280;14.292;2023-12-28T02:06:15;14.77;;;14.71;;
50417;SDS011;36346;48.280;14.292;2023-12-28T02:08:45;15.43;;;15.33;;
50417;SDS011;36346;48.280;14.292;2023-12-28T02:11:13;15.67;;;15.63;;
50417;SDS011;36346;48.280;14.292;2023-12-28T02:13:43;17.06;;;16.97;;
50417;SDS011;36346;48.280;14.292;2023-12-28T02:18:46;17.52;;;17.50;;
50417;SDS011;36346;48.280;14.292;2023-12-28T02:21:18;17.77;;;17.66;;
50417;SDS011;36346;48.280;14.292;2023-12-28T02:23:49;17.07;;;17.05;;
50417;SDS011;36346;48.280;14.292;2023-12-28T02:26:17;15.21;;;15.16;;
50417;SDS011;36346;48.280;14.292;2023-12-28T02:28:48;12.94;;;12.92;;
50417;SDS011;36346;48.280;14.292;2023-12-28T02:31:19;13.59;;;13.53;;
50417;SDS011;36346;48.280;14.292;2023-12-28T02:33:57;13.46;;;13.45;;
50417;SDS011;36346;48.280;14.292;2023-12-28T02:36:41;13.69;;;13.66;;
50417;SDS011;36346;48.280;14.292;2023-12-28T02:39:13;13.71;;;13.68;;
50417;SDS011;36346;48.280;14.292;2023-12-28T02:41:43;13.25;;;13.21;;
50417;SDS011;36346;48.280;14.292;2023-12-28T02:44:12;13.85;;;13.77;;
50417;SDS011;36346;48.280;14.292;2023-12-28T02:46:42;13.70;;;13.63;;
50417;SDS011;36346;48.280;14.292;2023-12-28T02:49:10;13.63;;;13.60;;
50417;SDS011;36346;48.280;14.292;2023-12-28T02:51:39;13.16;;;13.14;;
50417;SDS011;36346;48.280;14.292;2023-12-28T02:54:10;13.50;;;13.47;;
50417;SDS011;36346;48.280;14.292;2023-12-28T02:56:42;13.19;;;13.19;;
50417;SDS011;36346;48.280;14.292;2023-12-28T02:59:12;12.29;;;12.28;;
50417;SDS011;36346;48.280;14.292;2023-12-28T03:01:41;12.86;;;12.78;;
50417;SDS011;36346;48.280;14.292;2023-12-28T03:04:11;12.24;;;12.23;;
50417;SDS011;36346;48.280;14.292;2023-12-28T03:06:41;12.59;;;12.54;;
50417;SDS011;36346;48.280;14.292;2023-12-28T03:09:11;12.73;;;12.71;;
50417;SDS011;36346;48.280;14.292;2023-12-28T03:11:39;13.45;;;13.41;;
50417;SDS011;36346;48.280;14.292;2023-12-28T03:14:08;12.05;;;12.02;;
50417;SDS011;36346;48.280;14.292;2023-12-28T03:16:38;12.67;;;12.65;;
50417;SDS011;36346;48.280;14.292;2023-12-28T03:19:07;12.05;;;12.00;;
50417;SDS011;36346;48.280;14.292;2023-12-28T03:21:39;12.29;;;12.27;;
50417;SDS011;36346;48.280;14.292;2023-12-28T03:24:08;11.95;;;11.90;;
50417;SDS011;36346;48.280;14.292;2023-12-28T03:26:40;11.93;;;11.88;;
50417;SDS011;36346;48.280;14.292;2023-12-28T03:29:09;12.09;;;12.03;;
50417;SDS011;36346;48.280;14.292;2023-12-28T03:31:39;11.58;;;11.56;;
50417;SDS011;36346;48.280;14.292;2023-12-28T03:34:08;11.58;;;11.55;;
50417;SDS011;36346;48.280;14.292;2023-12-28T03:36:38;11.92;;;11.90;;
50417;SDS011;36346;48.280;14.292;2023-12-28T03:39:08;12.87;;;12.85;;
50417;SDS011;36346;48.280;14.292;2023-12-28T03:41:38;12.66;;;12.65;;
50417;SDS011;36346;48.280;14.292;2023-12-28T03:44:06;11.78;;;11.74;;
50417;SDS011;36346;48.280;14.292;2023-12-28T03:46:35;12.40;;;12.35;;
50417;SDS011;36346;48.280;14.292;2023-12-28T03:49:03;12.06;;;12.02;;
50417;SDS011;36346;48.280;14.292;2023-12-28T03:51:32;12.31;;;12.29;;
50417;SDS011;36346;48.280;14.292;2023-12-28T03:54:02;12.15;;;12.09;;
50417;SDS011;36346;48.280;14.292;2023-12-28T03:56:30;12.13;;;12.07;;
50417;SDS011;36346;48.280;14.292;2023-12-28T03:59:01;13.45;;;13.38;;
50417;SDS011;36346;48.280;14.292;2023-12-28T04:01:29;12.77;;;12.75;;
50417;SDS011;36346;48.280;14.292;2023-12-28T04:04:00;15.58;;;15.52;;
50417;SDS011;36346;48.280;14.292;2023-12-28T04:06:30;12.90;;;12.86;;
50417;SDS011;36346;48.280;14.292;2023-12-28T04:08:58;12.21;;;12.20;;
50417;SDS011;36346;48.280;14.292;2023-12-28T04:11:28;12.21;;;12.18;;
50417;SDS011;36346;48.280;14.292;2023-12-28T04:13:58;12.51;;;12.48;;
50417;SDS011;36346;48.280;14.292;2023-12-28T04:16:27;13.43;;;13.39;;
50417;SDS011;36346;48.280;14.292;2023-12-28T04:18:55;13.76;;;13.75;;
50417;SDS011;36346;48.280;14.292;2023-12-28T04:21:24;14.70;;;14.68;;
50417;SDS011;36346;48.280;14.292;2023-12-28T04:23:53;14.00;;;14.00;;
50417;SDS011;36346;48.280;14.292;2023-12-28T04:26:21;14.18;;;14.18;;
50417;SDS011;36346;48.280;14.292;2023-12-28T04:28:49;13.97;;;13.96;;
50417;SDS011;36346;48.280;14.292;2023-12-28T04:31:17;14.11;;;14.10;;
50417;SDS011;36346;48.280;14.292;2023-12-28T04:33:46;14.18;;;14.18;;
50417;SDS011;36346;48.280;14.292;2023-12-28T04:36:14;14.12;;;14.12;;
50417;SDS011;36346;48.280;14.292;2023-12-28T04:38:44;14.54;;;14.52;;
50417;SDS011;36346;48.280;14.292;2023-12-28T04:41:13;13.94;;;13.88;;
50417;SDS011;36346;48.280;14.292;2023-12-28T04:43:41;13.84;;;13.83;;
50417;SDS011;36346;48.280;14.292;2023-12-28T04:46:10;13.72;;;13.69;;
50417;SDS011;36346;48.280;14.292;2023-12-28T04:48:39;13.52;;;13.52;;
50417;SDS011;36346;48.280;14.292;2023-12-28T04:51:07;14.24;;;14.24;;
50417;SDS011;36346;48.280;14.292;2023-12-28T04:53:35;13.78;;;13.75;;
50417;SDS011;36346;48.280;14.292;2023-12-28T04:56:05;14.33;;;14.32;;
50417;SDS011;36346;48.280;14.292;2023-12-28T04:58:34;14.46;;;14.43;;
50417;SDS011;36346;48.280;14.292;2023-12-28T05:01:03;14.28;;;14.27;;
50417;SDS011;36346;48.280;14.292;2023-12-28T05:03:32;13.95;;;13.92;;
50417;SDS011;36346;48.280;14.292;2023-12-28T05:06:01;14.57;;;14.54;;
50417;SDS011;36346;48.280;14.292;2023-12-28T05:08:31;14.78;;;14.76;;
50417;SDS011;36346;48.280;14.292;2023-12-28T05:10:59;14.47;;;14.46;;
50417;SDS011;36346;48.280;14.292;2023-12-28T05:13:28;14.82;;;14.79;;
50417;SDS011;36346;48.280;14.292;2023-12-28T05:15:58;14.68;;;14.66;;
50417;SDS011;36346;48.280;14.292;2023-12-28T05:18:26;14.39;;;14.38;;
50417;SDS011;36346;48.280;14.292;2023-12-28T05:20:58;14.42;;;14.42;;
50417;SDS011;36346;48.280;14.292;2023-12-28T05:23:27;15.16;;;15.15;;
50417;SDS011;36346;48.280;14.292;2023-12-28T05:25:58;15.44;;;15.37;;
50417;SDS011;36346;48.280;14.292;2023-12-28T05:28:26;15.69;;;15.64;;
50417;SDS011;36346;48.280;14.292;2023-12-28T05:30:54;16.19;;;16.14;;
50417;SDS011;36346;48.280;14.292;2023-12-28T05:33:23;16.23;;;16.21;;
50417;SDS011;36346;48.280;14.292;2023-12-28T05:35:54;16.30;;;16.22;;
50417;SDS011;36346;48.280;14.292;2023-12-28T05:38:22;18.07;;;17.70;;
50417;SDS011;36346;48.280;14.292;2023-12-28T05:40:50;19.27;;;18.46;;
50417;SDS011;36346;48.280;14.292;2023-12-28T05:43:21;18.40;;;17.91;;
50417;SDS011;36346;48.280;14.292;2023-12-28T05:45:51;17.33;;;17.13;;
50417;SDS011;36346;48.280;14.292;2023-12-28T05:48:19;16.73;;;16.49;;
50417;SDS011;36346;48.280;14.292;2023-12-28T05:50:48;17.01;;;16.72;;
50417;SDS011;36346;48.280;14.292;2023-12-28T05:53:16;17.50;;;17.18;;
50417;SDS011;36346;48.280;14.292;2023-12-28T05:55:45;17.60;;;17.34;;
50417;SDS011;36346;48.280;14.292;2023-12-28T05:58:13;17.34;;;17.15;;
50417;SDS011;36346;48.280;14.292;2023-12-28T06:00:41;18.12;;;17.79;;
50417;SDS011;36346;48.280;14.292;2023-12-28T06:03:10;18.11;;;17.90;;
50417;SDS011;36346;48.280;14.292;2023-12-28T06:05:39;17.57;;;17.44;;
50417;SDS011;36346;48.280;14.292;2023-12-28T06:08:08;18.49;;;18.37;;
50417;SDS011;36346;48.280;14.292;2023-12-28T06:10:36;18.47;;;18.29;;
50417;SDS011;36346;48.280;14.292;2023-12-28T06:13:04;17.66;;;17.53;;
50417;SDS011;36346;48.280;14.292;2023-12-28T06:15:34;18.19;;;17.99;;
50417;SDS011;36346;48.280;14.292;2023-12-28T06:18:02;18.86;;;18.67;;
50417;SDS011;36346;48.280;14.292;2023-12-28T06:20:33;19.22;;;19.03;;
50417;SDS011;36346;48.280;14.292;2023-12-28T06:23:02;20.61;;;19.99;;
50417;SDS011;36346;48.280;14.292;2023-12-28T06:25:30;20.71;;;20.23;;
50417;SDS011;36346;48.280;14.292;2023-12-28T06:27:58;21.21;;;20.30;;
50417;SDS011;36346;48.280;14.292;2023-12-28T06:30:28;22.47;;;21.59;;
50417;SDS011;36346;48.280;14.292;2023-12-28T06:32:56;21.74;;;20.81;;
50417;SDS011;36346;48.280;14.292;2023-12-28T06:35:24;21.58;;;20.84;;
50417;SDS011;36346;48.280;14.292;2023-12-28T06:37:52;22.17;;;21.35;;
50417;SDS011;36346;48.280;14.292;2023-12-28T06:40:20;22.03;;;21.31;;
50417;SDS011;36346;48.280;14.292;2023-12-28T06:42:48;22.94;;;21.70;;
50417;SDS011;36346;48.280;14.292;2023-12-28T06:45:17;22.62;;;21.51;;
50417;SDS011;36346;48.280;14.292;2023-12-28T06:47:46;22.11;;;21.15;;
50417;SDS011;36346;48.280;14.292;2023-12-28T06:50:14;22.08;;;21.08;;
50417;SDS011;36346;48.280;14.292;2023-12-28T06:52:43;24.13;;;22.74;;
50417;SDS011;36346;48.280;14.292;2023-12-28T06:55:11;24.72;;;23.30;;
50417;SDS011;36346;48.280;14.292;2023-12-28T06:57:39;28.49;;;25.90;;
50417;SDS011;36346;48.280;14.292;2023-12-28T07:00:09;41.01;;;35.65;;
50417;SDS011;36346;48.280;14.292;2023-12-28T07:02:37;35.55;;;31.29;;
50417;SDS011;36346;48.280;14.292;2023-12-28T07:05:06;39.16;;;33.86;;
50417;SDS011;36346;48.280;14.292;2023-12-28T07:07:36;40.35;;;34.87;;
50417;SDS011;36346;48.280;14.292;2023-12-28T07:10:05;41.05;;;35.58;;
50417;SDS011;36346;48.280;14.292;2023-12-28T07:12:34;47.73;;;40.92;;
50417;SDS011;36346;48.280;14.292;2023-12-28T07:15:03;51.77;;;43.95;;
50417;SDS011;36346;48.280;14.292;2023-12-28T07:17:33;56.79;;;47.53;;
50417;SDS011;36346;48.280;14.292;2023-12-28T07:20:01;69.57;;;57.86;;
50417;SDS011;36346;48.280;14.292;2023-12-28T07:22:29;74.60;;;62.68;;
50417;SDS011;36346;48.280;14.292;2023-12-28T07:24:57;80.35;;;67.74;;
50417;SDS011;36346;48.280;14.292;2023-12-28T07:27:25;98.26;;;81.75;;
50417;SDS011;36346;48.280;14.292;2023-12-28T07:29:53;108.47;;;90.60;;
50417;SDS011;36346;48.280;14.292;2023-12-28T07:32:21;115.85;;;96.73;;
50417;SDS011;36346;48.280;14.292;2023-12-28T07:34:54;118.10;;;99.97;;
50417;SDS011;36346;48.280;14.292;2023-12-28T07:37:22;127.96;;;107.98;;
50417;SDS011;36346;48.280;14.292;2023-12-28T07:39:50;124.07;;;106.35;;
50417;SDS011;36346;48.280;14.292;2023-12-28T07:42:19;119.15;;;101.85;;
50417;SDS011;36346;48.280;14.292;2023-12-28T07:44:47;112.99;;;96.46;;
50417;SDS011;36346;48.280;14.292;2023-12-28T07:47:17;114.13;;;96.85;;
50417;SDS011;36346;48.280;14.292;2023-12-28T07:49:45;110.82;;;93.50;;
50417;SDS011;36346;48.280;14.292;2023-12-28T07:52:13;111.37;;;94.24;;
50417;SDS011;36346;48.280;14.292;2023-12-28T07:54:41;108.63;;;93.84;;
50417;SDS011;36346;48.280;14.292;2023-12-28T07:57:10;116.80;;;99.59;;
50417;SDS011;36346;48.280;14.292;2023-12-28T07:59:38;122.83;;;104.61;;
50417;SDS011;36346;48.280;14.292;2023-12-28T08:02:07;119.57;;;102.88;;
50417;SDS011;36346;48.280;14.292;2023-12-28T08:04:36;120.05;;;103.83;;
50417;SDS011;36346;48.280;14.292;2023-12-28T08:07:04;114.72;;;100.01;;
50417;SDS011;36346;48.280;14.292;2023-12-28T08:09:35;105.11;;;93.39;;
50417;SDS011;36346;48.280;14.292;2023-12-28T08:12:04;103.95;;;92.14;;
50417;SDS011;36346;48.280;14.292;2023-12-28T08:14:35;98.31;;;88.77;;
50417;SDS011;36346;48.280;14.292;2023-12-28T08:17:03;98.69;;;88.03;;
50417;SDS011;36346;48.280;14.292;2023-12-28T08:19:32;95.68;;;85.30;;
50417;SDS011;36346;48.280;14.292;2023-12-28T08:22:00;93.94;;;84.81;;
50417;SDS011;36346;48.280;14.292;2023-12-28T08:24:28;91.69;;;83.28;;
50417;SDS011;36346;48.280;14.292;2023-12-28T08:26:57;89.90;;;81.48;;
50417;SDS011;36346;48.280;14.292;2023-12-28T08:29:28;84.24;;;77.00;;
50417;SDS011;36346;48.280;14.292;2023-12-28T08:31:56;78.75;;;73.27;;
50417;SDS011;36346;48.280;14.292;2023-12-28T08:34:25;72.64;;;67.51;;
50417;SDS011;36346;48.280;14.292;2023-12-28T08:36:53;72.86;;;68.21;;
50417;SDS011;36346;48.280;14.292;2023-12-28T08:39:22;71.96;;;68.41;;
50417;SDS011;36346;48.280;14.292;2023-12-28T08:41:51;71.69;;;68.14;;
50417;SDS011;36346;48.280;14.292;2023-12-28T08:44:19;72.43;;;68.75;;
50417;SDS011;36346;48.280;14.292;2023-12-28T08:46:48;69.06;;;65.92;;
50417;SDS011;36346;48.280;14.292;2023-12-28T08:49:17;67.57;;;64.45;;
50417;SDS011;36346;48.280;14.292;2023-12-28T08:51:45;61.06;;;58.08;;
50417;SDS011;36346;48.280;14.292;2023-12-28T08:54:13;53.85;;;51.73;;
50417;SDS011;36346;48.280;14.292;2023-12-28T08:56:42;49.21;;;47.58;;
50417;SDS011;36346;48.280;14.292;2023-12-28T08:59:11;43.18;;;41.89;;
50417;SDS011;36346;48.280;14.292;2023-12-28T09:01:40;40.14;;;39.07;;
50417;SDS011;36346;48.280;14.292;2023-12-28T09:04:08;41.31;;;40.06;;
50417;SDS011;36346;48.280;14.292;2023-12-28T09:06:36;34.33;;;33.67;;
50417;SDS011;36346;48.280;14.292;2023-12-28T09:09:05;30.63;;;30.22;;
50417;SDS011;36346;48.280;14.292;2023-12-28T09:11:34;30.10;;;29.72;;
50417;SDS011;36346;48.280;14.292;2023-12-28T09:14:02;30.55;;;29.97;;
50417;SDS011;36346;48.280;14.292;2023-12-28T09:16:31;31.87;;;31.37;;
50417;SDS011;36346;48.280;14.292;2023-12-28T09:18:58;32.67;;;31.86;;
50417;SDS011;36346;48.280;14.292;2023-12-28T09:21:27;30.79;;;29.97;;
50417;SDS011;36346;48.280;14.292;2023-12-28T09:23:55;29.79;;;29.09;;
50417;SDS011;36346;48.280;14.292;2023-12-28T09:26:24;27.67;;;27.10;;
50417;SDS011;36346;48.280;14.292;2023-12-28T09:28:52;24.75;;;24.54;;
50417;SDS011;36346;48.280;14.292;2023-12-28T09:31:22;25.38;;;24.71;;
50417;SDS011;36346;48.280;14.292;2023-12-28T09:33:50;26.72;;;26.30;;
50417;SDS011;36346;48.280;14.292;2023-12-28T09:36:20;25.81;;;25.45;;
50417;SDS011;36346;48.280;14.292;2023-12-28T09:38:48;24.29;;;23.92;;
50417;SDS011;36346;48.280;14.292;2023-12-28T09:41:19;22.14;;;21.86;;
50417;SDS011;36346;48.280;14.292;2023-12-28T09:43:53;23.42;;;23.15;;
50417;SDS011;36346;48.280;14.292;2023-12-28T09:46:24;23.65;;;23.43;;
50417;SDS011;36346;48.280;14.292;2023-12-28T09:48:54;22.13;;;21.92;;
50417;SDS011;36346;48.280;14.292;2023-12-28T09:51:25;21.91;;;21.66;;
50417;SDS011;36346;48.280;14.292;2023-12-28T09:53:53;21.03;;;20.82;;
50417;SDS011;36346;48.280;14.292;2023-12-28T09:56:22;20.77;;;20.44;;
50417;SDS011;36346;48.280;14.292;2023-12-28T09:58:52;18.88;;;18.66;;
50417;SDS011;36346;48.280;14.292;2023-12-28T10:01:21;19.25;;;19.07;;
50417;SDS011;36346;48.280;14.292;2023-12-28T10:03:49;18.62;;;18.39;;
50417;SDS011;36346;48.280;14.292;2023-12-28T10:06:18;19.73;;;19.41;;
50417;SDS011;36346;48.280;14.292;2023-12-28T10:08:48;20.09;;;19.83;;
50417;SDS011;36346;48.280;14.292;2023-12-28T10:11:18;20.15;;;19.96;;
50417;SDS011;36346;48.280;14.292;2023-12-28T10:13:48;20.44;;;20.30;;
50417;SDS011;36346;48.280;14.292;2023-12-28T10:16:17;20.28;;;20.13;;
50417;SDS011;36346;48.280;14.292;2023-12-28T10:18:46;20.76;;;20.48;;
50417;SDS011;36346;48.280;14.292;2023-12-28T10:21:14;20.67;;;20.45;;
50417;SDS011;36346;48.280;14.292;2023-12-28T10:23:42;20.93;;;20.68;;
50417;SDS011;36346;48.280;14.292;2023-12-28T10:26:10;19.80;;;19.66;;
50417;SDS011;36346;48.280;14.292;2023-12-28T10:28:39;20.27;;;20.10;;
50417;SDS011;36346;48.280;14.292;2023-12-28T10:31:08;20.43;;;20.19;;
50417;SDS011;36346;48.280;14.292;2023-12-28T10:33:37;20.40;;;20.18;;
50417;SDS011;36346;48.280;14.292;2023-12-28T10:36:07;20.34;;;20.14;;
50417;SDS011;36346;48.280;14.292;2023-12-28T10:38:37;20.68;;;20.55;;
50417;SDS011;36346;48.280;14.292;2023-12-28T10:41:06;20.48;;;20.26;;
50417;SDS011;36346;48.280;14.292;2023-12-28T10:43:45;19.82;;;19.62;;
50417;SDS011;36346;48.280;14.292;2023-12-28T10:46:27;19.78;;;19.56;;
50417;SDS011;36346;48.280;14.292;2023-12-28T10:49:05;20.54;;;20.35;;
50417;SDS011;36346;48.280;14.292;2023-12-28T10:51:41;21.01;;;20.84;;
50417;SDS011;36346;48.280;14.292;2023-12-28T10:57:23;25.24;;;25.01;;
50417;SDS011;36346;48.280;14.292;2023-12-28T11:00:09;25.97;;;25.76;;
50417;SDS011;36346;48.280;14.292;2023-12-28T11:02:46;27.11;;;26.67;;
50417;SDS011;36346;48.280;14.292;2023-12-28T11:05:20;27.01;;;26.52;;
50417;SDS011;36346;48.280;14.292;2023-12-28T11:07:50;22.75;;;22.48;;
50417;SDS011;36346;48.280;14.292;2023-12-28T11:10:30;19.64;;;19.53;;
50417;SDS011;36346;48.280;14.292;2023-12-28T11:13:01;19.08;;;19.01;;
50417;SDS011;36346;48.280;14.292;2023-12-28T11:15:31;20.05;;;19.77;;
50417;SDS011;36346;48.280;14.292;2023-12-28T11:17:59;19.54;;;19.38;;
50417;SDS011;36346;48.280;14.292;2023-12-28T11:20:28;18.79;;;18.74;;
50417;SDS011;36346;48.280;14.292;2023-12-28T11:22:57;18.91;;;18.87;;
50417;SDS011;36346;48.280;14.292;2023-12-28T11:25:30;17.86;;;17.80;;
50417;SDS011;36346;48.280;14.292;2023-12-28T11:28:08;19.40;;;19.29;;
50417;SDS011;36346;48.280;14.292;2023-12-28T11:30:41;21.09;;;20.87;;
50417;SDS011;36346;48.280;14.292;2023-12-28T11:33:11;21.17;;;21.00;;
50417;SDS011;36346;48.280;14.292;2023-12-28T11:35:39;19.94;;;19.77;;
50417;SDS011;36346;48.280;14.292;2023-12-28T11:38:08;19.32;;;19.24;;
50417;SDS011;36346;48.280;14.292;2023-12-28T11:40:44;18.53;;;18.36;;
50417;SDS011;36346;48.280;14.292;2023-12-28T11:43:17;18.38;;;18.30;;
50417;SDS011;36346;48.280;14.292;2023-12-28T11:45:51;18.12;;;18.08;;
50417;SDS011;36346;48.280;14.292;2023-12-28T11:48:26;17.57;;;17.54;;
50417;SDS011;36346;48.280;14.292;2023-12-28T11:50:57;18.55;;;18.42;;
50417;SDS011;36346;48.280;14.292;2023-12-28T11:53:27;19.33;;;19.25;;
50417;SDS011;36346;48.280;14.292;2023-12-28T11:56:01;19.33;;;19.17;;
50417;SDS011;36346;48.280;14.292;2023-12-28T11:58:30;18.28;;;18.18;;
50417;SDS011;36346;48.280;14.292;2023-12-28T12:00:58;18.51;;;18.45;;
50417;SDS011;36346;48.280;14.292;2023-12-28T12:03:27;18.53;;;18.46;;
50417;SDS011;36346;48.280;14.292;2023-12-28T12:05:55;19.50;;;19.42;;
50417;SDS011;36346;48.280;14.292;2023-12-28T12:08:25;20.34;;;20.26;;
50417;SDS011;36346;48.280;14.292;2023-12-28T12:11:00;19.56;;;19.46;;
50417;SDS011;36346;48.280;14.292;2023-12-28T12:13:37;19.76;;;19.64;;
50417;SDS011;36346;48.280;14.292;2023-12-28T12:16:05;19.78;;;19.58;;
50417;SDS011;36346;48.280;14.292;2023-12-28T12:18:35;19.37;;;19.27;;
50417;SDS011;36346;48.280;14.292;2023-12-28T12:21:04;18.17;;;18.12;;
50417;SDS011;36346;48.280;14.292;2023-12-28T12:23:34;17.78;;;17.72;;
50417;SDS011;36346;48.280;14.292;2023-12-28T12:26:05;18.37;;;18.34;;
50417;SDS011;36346;48.280;14.292;2023-12-28T12:28:34;18.44;;;18.37;;
50417;SDS011;36346;48.280;14.292;2023-12-28T12:31:03;17.75;;;17.71;;
50417;SDS011;36346;48.280;14.292;2023-12-28T12:33:33;18.35;;;18.33;;
50417;SDS011;36346;48.280;14.292;2023-12-28T12:36:01;18.75;;;18.67;;
50417;SDS011;36346;48.280;14.292;2023-12-28T12:38:30;18.16;;;18.13;;
50417;SDS011;36346;48.280;14.292;2023-12-28T12:40:59;18.56;;;18.42;;
50417;SDS011;36346;48.280;14.292;2023-12-28T12:43:28;21.19;;;21.01;;
50417;SDS011;36346;48.280;14.292;2023-12-28T12:45:56;21.47;;;21.38;;
50417;SDS011;36346;48.280;14.292;2023-12-28T12:48:24;26.13;;;25.94;;
50417;SDS011;36346;48.280;14.292;2023-12-28T12:50:53;29.16;;;28.79;;
50417;SDS011;36346;48.280;14.292;2023-12-28T12:53:21;28.85;;;28.56;;
50417;SDS011;36346;48.280;14.292;2023-12-28T12:55:53;29.54;;;29.26;;
50417;SDS011;36346;48.280;14.292;2023-12-28T12:58:22;30.17;;;29.88;;
50417;SDS011;36346;48.280;14.292;2023-12-28T13:00:51;28.59;;;28.30;;
50417;SDS011;36346;48.280;14.292;2023-12-28T13:03:20;27.22;;;27.01;;
50417;SDS011;36346;48.280;14.292;2023-12-28T13:05:48;30.34;;;30.04;;
50417;SDS011;36346;48.280;14.292;2023-12-28T13:08:16;36.85;;;36.07;;
50417;SDS011;36346;48.280;14.292;2023-12-28T13:10:45;38.77;;;38.25;;
50417;SDS011;36346;48.280;14.292;2023-12-28T13:13:13;36.60;;;35.81;;
50417;SDS011;36346;48.280;14.292;2023-12-28T13:15:42;33.12;;;32.66;;
50417;SDS011;36346;48.280;14.292;2023-12-28T13:18:10;36.50;;;35.84;;
50417;SDS011;36346;48.280;14.292;2023-12-28T13:20:38;36.18;;;35.47;;
50417;SDS011;36346;48.280;14.292;2023-12-28T13:23:08;39.00;;;38.23;;
50417;SDS011;36346;48.280;14.292;2023-12-28T13:25:36;40.97;;;40.12;;
50417;SDS011;36346;48.280;14.292;2023-12-28T13:28:05;46.38;;;45.20;;
50417;SDS011;36346;48.280;14.292;2023-12-28T13:30:33;53.72;;;52.36;;
50417;SDS011;36346;48.280;14.292;2023-12-28T13:33:01;53.68;;;52.30;;
50417;SDS011;36346;48.280;14.292;2023-12-28T13:35:31;53.76;;;52.24;;
50417;SDS011;36346;48.280;14.292;2023-12-28T13:38:03;55.53;;;54.11;;
50417;SDS011;36346;48.280;14.292;2023-12-28T13:40:32;55.38;;;53.94;;
50417;SDS011;36346;48.280;14.292;2023-12-28T13:43:00;55.35;;;53.93;;
50417;SDS011;36346;48.280;14.292;2023-12-28T13:45:28;49.94;;;48.74;;
50417;SDS011;36346;48.280;14.292;2023-12-28T13:47:58;57.78;;;56.40;;
50417;SDS011;36346;48.280;14.292;2023-12-28T13:50:26;61.50;;;59.69;;
50417;SDS011;36346;48.280;14.292;2023-12-28T13:52:54;60.34;;;58.83;;
50417;SDS011;36346;48.280;14.292;2023-12-28T13:55:23;61.78;;;59.73;;
50417;SDS011;36346;48.280;14.292;2023-12-28T13:57:51;60.29;;;58.83;;
50417;SDS011;36346;48.280;14.292;2023-12-28T14:00:19;62.02;;;60.54;;
50417;SDS011;36346;48.280;14.292;2023-12-28T14:02:50;68.19;;;66.17;;
50417;SDS011;36346;48.280;14.292;2023-12-28T14:05:21;68.12;;;65.82;;
50417;SDS011;36346;48.280;14.292;2023-12-28T14:07:51;71.95;;;69.80;;
50417;SDS011;36346;48.280;14.292;2023-12-28T14:10:20;73.58;;;71.42;;
50417;SDS011;36346;48.280;14.292;2023-12-28T14:15:44;81.05;;;78.30;;
50417;SDS011;36346;48.280;14.292;2023-12-28T14:18:12;80.34;;;77.38;;
50417;SDS011;36346;48.280;14.292;2023-12-28T14:20:40;83.04;;;80.10;;
50417;SDS011;36346;48.280;14.292;2023-12-28T14:23:09;89.56;;;85.95;;
50417;SDS011;36346;48.280;14.292;2023-12-28T14:25:38;90.13;;;86.56;;
50417;SDS011;36346;48.280;14.292;2023-12-28T14:28:06;93.19;;;89.32;;
50417;SDS011;36346;48.280;14.292;2023-12-28T14:30:35;96.57;;;92.98;;